Impacts METAR Board
IDs:

KMSP - Minneapolis-St Paul, MN, US

Updated at: 1600 UTC 20 Aug 2019
Potential Impact None Slight Moderate High
Time 20/04Z 20/05Z 20/06Z 20/07Z 20/08Z 20/09Z 20/10Z 20/11Z 20/12Z 20/13Z 20/14Z 20/15Z 20/16Z
Temp71 70 71 70 68 67 66 65 65 68 70 69 67
Dewpt62 62 62 62 61 61 60 60 60 60 61 63 64
Altim30.00 30.00 30.00 29.99 29.97 29.92 29.91 29.90 29.93 29.92 29.94 29.98 29.94
VIS10 10 10 10 10 10 10 10 10 10 10 1.5 10
CIG-- -- -- -- -- -- -- -- 300 300 170 23 110
CoverCLRCLRCLRCLRCLRFEWCLRFEWBKNBKNBKNOVCBKN
FltCatVFRVFRVFRVFRVFRVFRVFRVFRVFRVFRVFRIFRVFR
WX----------------------+TSRA-RA
WDir15018018015015014013013015017014020130
WSpd6 4 6 4 5 6 3 5 7 8 9 13 15
WGst-- -- -- -- -- -- -- -- -- -- -- 27 28
Raw hourly METARs
KMSP 200353Z 15006KT 10SM CLR 22/17 A3000 RMK AO2 SLP155 T02170167
KMSP 200453Z 18004KT 10SM CLR 21/17 A3000 RMK AO2 SLP156 T02110167
KMSP 200553Z 18006KT 10SM CLR 22/17 A3000 RMK AO2 SLP153 T02170167 10267 20206 402720144 50002
KMSP 200653Z 15004KT 10SM CLR 21/17 A2999 RMK AO2 SLP151 T02110167
KMSP 200753Z 15005KT 10SM CLR 20/16 A2997 RMK AO2 SLP144 T02000161
KMSP 200853Z 14006KT 10SM FEW250 19/16 A2992 RMK AO2 SLP127 T01940161 58025
KMSP 200953Z 13003KT 10SM CLR 19/16 A2991 RMK AO2 SLP123 T01890156
KMSP 201053Z 13005KT 10SM FEW250 18/16 A2990 RMK AO2 SLP120 T01830156
KMSP 201153Z 15007KT 10SM FEW060 FEW110 BKN300 18/16 A2993 RMK AO2 SLP130 CB DSNT S-W AND NW-N T01830156 10217 20183 53002
KMSP 201253Z 17008KT 10SM FEW110 BKN300 20/16 A2992 RMK AO2 SLP127 CB DSNT S-W AND NW-N MOV SE T02000156
KMSP 201353Z 14009KT 10SM FEW120 BKN170 BKN300 21/16 A2994 RMK AO2 SLP132 CB DSNT W-N MOV SE ACC ALQDS T02110161
KMSP 201459Z 02013G27KT 1 1/2SM +TSRA BKN023CB OVC080 21/17 A2998 RMK AO2 PK WND 03027/1456 LTG DSNT ALQDS RAB54 TSB56 VIS SE-S 9 TS OHD MOV SE P0005 T02060172
KMSP 201553Z 13015G28KT 10SM -RA FEW010 SCT035 BKN110 BKN150CB BKN250 19/18 A2994 RMK AO2 PK WND 12045/1540 WSHFT 1514 LTG DSNT ALQDS RAB1454 TSB1456E40 SLP135 CBMAM OHD MOV SE P0063 T01940178



Page loaded:  16:44 UTC  |   09:44 AM Pacific  |   10:44 AM Mountain  |   11:44 AM Central  |   12:44 PM Eastern

 

ADVISORIES

FORECASTS

FORECASTS

OBSERVATIONS

USER TOOLS

ABOUT US